Keimoes, South Africa
Current Conditions -  °F | °C
As of 7:00 PM on Saturday 20 Dec 2014 (Local Time) from FAUP Reporting Station
Clear Clear  
Wind Chill: 91°   Ceiling: Unl
Heat Index: 91°   Visibility: 6mi
Dew Point: 25°   Wind: 8mph
Humidity: 9%   Direction: 200°SSW
Pressure: 29.88"   Gusts: NA
Location:  28.71°S, 20.98°E
Report Text: FAUP 201700Z 20007KT CAVOK 33/M04 Q1012 NOSIG
Loading
Personal Weather Stations






























Interactive Weather Map New forecast layout! Learn more

10-Day Weather Forecast

Advertisements
Track Severe Weather on mobile